createdAt,value
2018-05-09T00:02:05.190Z,43.27
2018-05-09T00:04:32.982Z,56.93
2018-05-09T00:07:01.529Z,45.43
2018-05-09T00:09:29.312Z,54.80
2018-05-09T00:11:57.936Z,47.23
2018-05-09T00:14:26.484Z,53.03
2018-05-09T00:16:55.063Z,49.67
2018-05-09T00:19:23.606Z,43.53
2018-05-09T00:21:51.397Z,43.77
2018-05-09T00:24:19.184Z,41.83
2018-05-09T00:26:47.766Z,48.50
2018-05-09T00:29:16.337Z,47.53
2018-05-09T00:31:44.169Z,56.10
2018-05-09T00:34:11.987Z,50.57
2018-05-09T00:36:40.523Z,44.00
2018-05-09T00:39:08.297Z,40.40
2018-05-09T00:41:36.158Z,48.43
2018-05-09T00:44:03.916Z,53.23
2018-05-09T00:46:31.699Z,50.40
2018-05-09T00:48:59.494Z,51.80
2018-05-09T00:51:28.065Z,43.03
2018-05-09T00:54:09.366Z,54.40
2018-05-09T00:56:37.164Z,49.40
2018-05-09T00:59:04.946Z,41.37
2018-05-09T01:01:32.742Z,43.30
2018-05-09T01:04:01.293Z,38.23
2018-05-09T01:06:29.154Z,48.43
2018-05-09T01:08:56.949Z,50.37
2018-05-09T01:11:25.592Z,46.23
2018-05-09T01:13:53.365Z,57.60
2018-05-09T01:16:21.172Z,44.07
2018-05-09T01:18:49.723Z,47.97
2018-05-09T01:21:17.520Z,48.73
2018-05-09T01:23:46.072Z,52.30
2018-05-09T01:26:13.900Z,43.93
2018-05-09T01:28:41.752Z,43.00
2018-05-09T01:31:09.564Z,53.27
2018-05-09T01:33:37.387Z,48.40
2018-05-09T01:36:05.198Z,54.87
2018-05-09T01:38:32.980Z,52.53
2018-05-09T01:41:01.544Z,54.73
2018-05-09T01:43:29.345Z,48.70
2018-05-09T01:45:58.029Z,58.93
2018-05-09T01:48:25.788Z,50.73
2018-05-09T01:50:54.332Z,52.23
2018-05-09T01:53:22.191Z,58.20
2018-05-09T01:55:49.972Z,56.60
2018-05-09T01:58:17.752Z,58.03
2018-05-09T02:00:45.604Z,50.10
2018-05-09T02:03:13.494Z,49.67
2018-05-09T02:05:42.045Z,53.47
2018-05-09T02:08:09.836Z,52.70
2018-05-09T02:10:38.392Z,48.03
2018-05-09T02:13:06.173Z,47.73
2018-05-09T02:15:33.952Z,59.63
2018-05-09T02:18:02.503Z,54.57
2018-05-09T02:20:30.286Z,53.23
2018-05-09T02:22:58.081Z,50.77
2018-05-09T02:25:25.871Z,56.80
2018-05-09T02:27:53.651Z,65.97
2018-05-09T02:30:21.432Z,58.03
2018-05-09T02:32:49.263Z,59.73
2018-05-09T02:35:17.058Z,62.73
2018-05-09T02:37:44.845Z,49.20
2018-05-09T02:40:13.395Z,59.47
2018-05-09T02:42:41.232Z,63.87
2018-05-09T02:45:09.041Z,60.40
2018-05-09T02:47:36.822Z,63.20
2018-05-09T02:50:04.608Z,54.70
2018-05-09T02:52:32.499Z,67.30
2018-05-09T02:55:00.357Z,62.43
2018-05-09T02:57:28.232Z,74.30
2018-05-09T02:59:56.025Z,53.83
2018-05-09T03:02:23.818Z,53.67
2018-05-09T03:04:52.429Z,65.03
2018-05-09T03:07:20.215Z,54.40
2018-05-09T03:09:48.766Z,45.63
2018-05-09T03:12:16.564Z,61.33
2018-05-09T03:14:44.383Z,50.13
2018-05-09T03:17:12.936Z,51.17
2018-05-09T03:19:40.712Z,45.87
2018-05-09T03:22:08.512Z,47.47
2018-05-09T03:24:36.296Z,50.30
2018-05-09T03:27:04.088Z,44.73
2018-05-09T03:29:31.872Z,51.53
2018-05-09T03:31:59.668Z,44.37
2018-05-09T03:34:27.445Z,36.90
2018-05-09T03:36:55.244Z,31.53
2018-05-09T03:39:23.018Z,34.23
2018-05-09T03:41:50.856Z,38.83
2018-05-09T03:44:18.639Z,49.47
2018-05-09T03:46:46.425Z,41.70
2018-05-09T03:49:14.272Z,39.43
2018-05-09T03:51:42.058Z,38.70
2018-05-09T03:54:09.917Z,38.83
2018-05-09T03:56:37.701Z,46.10
2018-05-09T03:59:06.261Z,47.87
2018-05-09T04:01:45.907Z,38.93
2018-05-09T04:04:25.491Z,46.00
2018-05-09T04:07:05.037Z,48.27
2018-05-09T04:12:26.212Z,48.57
2018-05-09T04:14:54.189Z,34.50
2018-05-09T04:17:21.950Z,30.53
2018-05-09T04:19:49.727Z,28.03
2018-05-09T04:22:18.288Z,36.90
2018-05-09T04:24:46.104Z,41.07
2018-05-09T04:27:13.892Z,30.83
2018-05-09T04:29:41.684Z,48.97
2018-05-09T04:32:09.479Z,38.40
2018-05-09T04:34:38.053Z,35.43
2018-05-09T04:37:06.604Z,26.07
2018-05-09T04:39:34.393Z,31.40
2018-05-09T04:42:02.207Z,35.60
2018-05-09T04:44:30.037Z,27.50
2018-05-09T04:46:58.597Z,38.27
2018-05-09T04:49:26.399Z,39.03
2018-05-09T04:51:54.177Z,38.73
2018-05-09T04:54:22.048Z,48.30
2018-05-09T04:56:49.843Z,53.40
2018-05-09T04:59:17.629Z,43.60
2018-05-09T05:01:45.444Z,46.73
2018-05-09T05:04:13.230Z,46.87
2018-05-09T05:06:41.049Z,48.07
2018-05-09T05:09:08.869Z,63.97
2018-05-09T05:11:36.705Z,52.53
2018-05-09T05:14:04.471Z,46.93
2018-05-09T05:16:33.052Z,58.60
2018-05-09T05:19:00.898Z,45.23
2018-05-09T05:21:28.725Z,45.83
2018-05-09T05:23:56.500Z,29.73
2018-05-09T05:26:24.288Z,33.67
2018-05-09T05:28:52.072Z,41.03
2018-05-09T05:31:20.021Z,43.83
2018-05-09T05:33:47.900Z,29.90
2018-05-09T05:36:15.719Z,25.80
2018-05-09T05:38:43.562Z,24.03
2018-05-09T05:41:11.416Z,15.63
2018-05-09T05:43:39.205Z,18.53
2018-05-09T05:46:07.016Z,20.77
2018-05-09T05:48:34.832Z,24.60
2018-05-09T05:51:02.616Z,29.40
2018-05-09T05:53:30.433Z,32.23
2018-05-09T05:55:58.292Z,46.30
2018-05-09T05:58:26.819Z,29.10
2018-05-09T06:00:54.609Z,24.13
2018-05-09T06:03:23.164Z,26.13
2018-05-09T06:05:50.971Z,22.13
2018-05-09T06:08:18.803Z,24.10
2018-05-09T06:10:46.646Z,36.17
2018-05-09T06:13:14.463Z,23.37
2018-05-09T06:15:42.296Z,30.77
2018-05-09T06:18:10.078Z,29.67
2018-05-09T06:20:37.886Z,41.80
2018-05-09T06:23:05.711Z,39.63
2018-05-09T06:25:34.248Z,36.57
2018-05-09T06:28:02.061Z,51.63
2018-05-09T06:30:29.908Z,55.53
2018-05-09T06:32:57.697Z,50.20
2018-05-09T06:35:26.247Z,59.57
2018-05-09T06:37:54.028Z,57.60
2018-05-09T06:40:22.768Z,58.30
2018-05-09T06:42:51.316Z,52.07
2018-05-09T06:45:19.900Z,61.50
2018-05-09T06:47:47.720Z,54.07
2018-05-09T06:50:15.518Z,43.07
2018-05-09T06:52:44.068Z,40.00
2018-05-09T06:55:11.884Z,44.77
2018-05-09T06:57:39.698Z,40.47
2018-05-09T07:00:07.554Z,51.07
2018-05-09T07:02:35.370Z,48.63
2018-05-09T07:05:03.974Z,49.93
2018-05-09T07:07:31.770Z,35.57
2018-05-09T07:09:59.584Z,46.20
2018-05-09T07:12:28.202Z,44.10
2018-05-09T07:14:56.002Z,35.47
2018-05-09T07:17:23.781Z,44.03
2018-05-09T07:19:52.333Z,36.73
2018-05-09T07:22:20.152Z,46.07
2018-05-09T07:24:47.954Z,38.53
2018-05-09T07:27:15.773Z,42.03
2018-05-09T07:29:44.339Z,45.43
2018-05-09T07:32:12.171Z,34.93
2018-05-09T07:34:39.971Z,45.43
2018-05-09T07:37:08.529Z,42.70
2018-05-09T07:39:36.349Z,46.83
2018-05-09T07:42:05.028Z,26.57
2018-05-09T07:44:33.597Z,30.40
2018-05-09T07:47:02.154Z,36.63
2018-05-09T07:49:30.572Z,30.10
2018-05-09T07:51:58.463Z,27.60
2018-05-09T07:54:26.333Z,32.57
2018-05-09T07:56:54.111Z,22.40
2018-05-09T07:59:21.916Z,28.90
2018-05-09T08:01:50.465Z,44.10
2018-05-09T08:04:18.350Z,33.67
2018-05-09T08:06:46.136Z,35.27
2018-05-09T08:09:14.698Z,30.13
2018-05-09T08:11:42.542Z,39.50
2018-05-09T08:14:11.905Z,42.03
2018-05-09T08:16:39.731Z,42.50
2018-05-09T08:19:07.513Z,51.03
2018-05-09T08:21:36.055Z,48.70
2018-05-09T08:24:03.853Z,59.13
2018-05-09T08:26:32.428Z,38.90
2018-05-09T08:29:00.254Z,32.60
2018-05-09T08:31:28.065Z,39.57
2018-05-09T08:33:56.616Z,37.17
2018-05-09T08:36:25.182Z,51.90
2018-05-09T08:38:52.984Z,51.93
2018-05-09T08:41:20.771Z,62.47
2018-05-09T08:43:49.321Z,52.20
2018-05-09T08:46:17.954Z,71.20
2018-05-09T08:48:45.797Z,61.73
2018-05-09T08:51:14.707Z,73.00
2018-05-09T08:53:42.514Z,57.60
2018-05-09T08:56:11.082Z,67.30
2018-05-09T08:58:38.904Z,56.67
2018-05-09T09:01:07.480Z,60.60
2018-05-09T09:03:36.041Z,65.70
2018-05-09T09:06:03.848Z,73.80
2018-05-09T09:08:32.421Z,58.53
2018-05-09T09:11:01.025Z,60.20
2018-05-09T09:13:28.883Z,67.67
2018-05-09T09:15:56.700Z,69.73
2018-05-09T09:18:24.498Z,83.20
2018-05-09T09:20:53.081Z,71.43
2018-05-09T09:23:21.143Z,74.47
2018-05-09T09:25:49.777Z,68.77
2018-05-09T09:28:17.547Z,65.53
2018-05-09T09:30:45.336Z,69.20
2018-05-09T09:33:13.126Z,76.87
2018-05-09T09:35:41.716Z,69.03
2018-05-09T09:38:10.376Z,70.40
2018-05-09T09:40:38.156Z,63.23
2018-05-09T09:43:06.701Z,69.97
2018-05-09T09:45:34.519Z,67.90
2018-05-09T09:48:03.100Z,65.77
2018-05-09T09:50:30.892Z,56.47
2018-05-09T09:52:58.680Z,60.87
2018-05-09T09:55:26.505Z,52.60
2018-05-09T09:57:54.292Z,54.40
2018-05-09T10:00:26.950Z,59.63
2018-05-09T10:02:54.794Z,51.70
2018-05-09T10:05:23.347Z,53.10
2018-05-09T10:07:51.139Z,61.17
2018-05-09T10:10:19.710Z,56.63
2018-05-09T10:12:47.491Z,56.70
2018-05-09T10:15:16.042Z,53.63
2018-05-09T10:17:43.828Z,48.50
2018-05-09T10:20:12.382Z,43.90
2018-05-09T10:22:40.191Z,57.17
2018-05-09T10:25:08.773Z,40.00
2018-05-09T10:27:37.324Z,48.20
2018-05-09T10:30:05.127Z,55.90
2018-05-09T10:32:32.924Z,44.73
2018-05-09T10:35:00.829Z,40.67
2018-05-09T10:37:28.624Z,41.63
2018-05-09T10:39:56.448Z,54.63
2018-05-09T10:42:24.232Z,39.90
2018-05-09T10:44:52.022Z,47.27
2018-05-09T10:47:19.800Z,41.17
2018-05-09T10:49:47.622Z,40.07
2018-05-09T10:52:15.429Z,48.67
2018-05-09T10:54:43.236Z,37.40
2018-05-09T10:57:11.043Z,37.00
2018-05-09T10:59:38.861Z,49.67
2018-05-09T11:02:06.664Z,69.40
2018-05-09T11:04:35.215Z,35.70
2018-05-09T11:07:03.017Z,49.97
2018-05-09T11:09:31.561Z,54.93
2018-05-09T11:11:59.416Z,44.07
2018-05-09T11:14:27.186Z,41.80
2018-05-09T11:16:54.980Z,50.20
2018-05-09T11:19:23.571Z,40.90
2018-05-09T11:21:52.143Z,41.93
2018-05-09T11:24:20.720Z,45.17
2018-05-09T11:26:49.319Z,45.37
2018-05-09T11:29:17.878Z,49.43
2018-05-09T11:31:45.656Z,41.73
2018-05-09T11:34:14.213Z,55.53
2018-05-09T11:36:42.089Z,48.13
2018-05-09T11:39:09.923Z,42.53
2018-05-09T11:41:37.709Z,41.33
2018-05-09T11:44:05.510Z,36.33
2018-05-09T11:46:33.327Z,41.20
2018-05-09T11:49:01.144Z,38.87
2018-05-09T11:51:29.785Z,37.60
2018-05-09T11:53:57.596Z,33.37
2018-05-09T11:56:25.386Z,39.23
2018-05-09T11:58:53.282Z,47.43
2018-05-09T12:01:21.112Z,28.80
2018-05-09T12:03:49.006Z,38.67
2018-05-09T12:06:16.816Z,34.43
2018-05-09T12:08:45.363Z,32.87
2018-05-09T12:11:13.249Z,33.00
2018-05-09T12:13:41.024Z,30.03
2018-05-09T12:16:09.576Z,30.60
2018-05-09T12:18:37.425Z,34.20
2018-05-09T12:21:05.273Z,35.00
2018-05-09T12:23:33.066Z,37.00
2018-05-09T12:26:00.864Z,40.13
2018-05-09T12:28:29.413Z,47.87
2018-05-09T12:30:57.266Z,38.30
2018-05-09T12:33:25.046Z,41.93
2018-05-09T12:35:52.858Z,43.93
2018-05-09T12:38:21.455Z,54.80
2018-05-09T12:40:49.250Z,38.07
2018-05-09T12:43:17.076Z,45.80
2018-05-09T12:45:45.664Z,48.80
2018-05-09T12:48:13.487Z,50.33
2018-05-09T12:50:41.302Z,42.77
2018-05-09T12:53:09.098Z,44.03
2018-05-09T12:55:36.900Z,40.50
2018-05-09T12:58:05.458Z,43.47
2018-05-09T13:00:33.255Z,50.10
2018-05-09T13:03:01.987Z,48.43
2018-05-09T13:05:29.800Z,43.60
2018-05-09T13:07:58.352Z,54.57
2018-05-09T13:10:26.202Z,49.93
2018-05-09T13:12:53.981Z,45.43
2018-05-09T13:15:21.856Z,52.03
2018-05-09T13:17:49.647Z,38.00
2018-05-09T13:20:17.474Z,47.83
2018-05-09T13:22:48.508Z,52.80
2018-05-09T13:25:16.761Z,41.67
2018-05-09T13:27:44.557Z,46.27
2018-05-09T13:30:12.390Z,42.83
2018-05-09T13:32:40.183Z,42.20
2018-05-09T13:35:07.967Z,37.53
2018-05-09T13:37:35.755Z,36.67
2018-05-09T13:40:04.352Z,38.67
2018-05-09T13:42:32.164Z,36.77
2018-05-09T13:45:00.754Z,38.00
2018-05-09T13:47:28.595Z,47.40
2018-05-09T13:49:56.379Z,35.57
2018-05-09T13:52:24.176Z,39.33
2018-05-09T13:54:52.928Z,38.70
2018-05-09T13:57:21.532Z,35.67
2018-05-09T13:59:49.393Z,37.30
2018-05-09T14:02:17.216Z,36.43
2018-05-09T14:04:45.050Z,34.47
2018-05-09T14:07:13.607Z,45.27
2018-05-09T14:09:41.418Z,39.00
2018-05-09T14:12:09.223Z,40.20
2018-05-09T14:14:37.024Z,36.90
2018-05-09T14:17:05.803Z,32.83
2018-05-09T14:19:34.411Z,31.03
2018-05-09T14:22:02.245Z,41.20
2018-05-09T14:24:30.028Z,34.70
2018-05-09T14:26:58.577Z,41.97
2018-05-09T14:29:26.387Z,40.50
2018-05-09T14:31:54.960Z,44.63
2018-05-09T14:34:23.525Z,39.87
2018-05-09T14:36:51.341Z,52.40
2018-05-09T14:39:21.156Z,50.57
2018-05-09T14:41:48.999Z,44.97
2018-05-09T14:44:16.808Z,51.30
2018-05-09T14:46:44.624Z,44.10
2018-05-09T14:49:12.424Z,35.13
2018-05-09T14:51:40.237Z,39.13
2018-05-09T14:54:08.910Z,36.00
2018-05-09T14:56:36.750Z,33.87
2018-05-09T14:59:04.678Z,34.23
2018-05-09T15:01:32.593Z,46.40
2018-05-09T15:04:00.495Z,40.80
2018-05-09T15:06:29.107Z,29.40
2018-05-09T15:08:56.883Z,27.70
2018-05-09T15:11:24.683Z,22.27
2018-05-09T15:13:52.472Z,35.97
2018-05-09T15:16:21.032Z,24.87
2018-05-09T15:18:55.128Z,27.47
2018-05-09T15:21:22.918Z,21.50
2018-05-09T15:23:50.719Z,25.63
2018-05-09T15:26:18.821Z,22.03
2018-05-09T15:28:46.644Z,21.80
2018-05-09T15:31:15.215Z,18.63
2018-05-09T15:33:43.774Z,25.97
2018-05-09T15:36:11.596Z,28.20
2018-05-09T15:38:39.517Z,21.77
2018-05-09T15:41:07.324Z,24.53
2018-05-09T15:43:35.112Z,20.10
2018-05-09T15:46:02.908Z,24.00
2018-05-09T15:48:30.692Z,22.07
2018-05-09T15:50:58.540Z,27.90
2018-05-09T15:53:26.337Z,25.43
2018-05-09T15:55:54.167Z,27.70
2018-05-09T15:58:21.945Z,31.07
2018-05-09T16:00:50.530Z,30.67
2018-05-09T16:03:18.312Z,35.10
2018-05-09T16:05:46.876Z,34.80
2018-05-09T16:08:15.482Z,27.40
2018-05-09T16:10:43.288Z,43.20
2018-05-09T16:13:11.998Z,27.77
2018-05-09T16:15:39.801Z,31.77
2018-05-09T16:18:07.599Z,30.80
2018-05-09T16:20:35.384Z,25.97
2018-05-09T16:23:03.170Z,38.87
2018-05-09T16:25:31.727Z,33.80
2018-05-09T16:27:59.556Z,33.77
2018-05-09T16:30:27.460Z,30.90
2018-05-09T16:32:55.251Z,32.03
2018-05-09T16:35:23.832Z,29.40
2018-05-09T16:37:52.384Z,31.17
2018-05-09T16:40:20.220Z,46.83
2018-05-09T16:42:48.030Z,28.10
2018-05-09T16:45:15.844Z,31.57
2018-05-09T16:47:43.640Z,32.83
2018-05-09T16:50:11.475Z,27.93
2018-05-09T16:52:39.301Z,31.90
2018-05-09T16:55:07.091Z,25.00
2018-05-09T16:57:34.869Z,31.97
2018-05-09T17:00:02.666Z,35.63
2018-05-09T17:02:31.207Z,34.93
2018-05-09T17:04:58.987Z,34.63
2018-05-09T17:07:26.808Z,38.83
2018-05-09T17:09:54.588Z,38.83
2018-05-09T17:12:23.156Z,33.83
2018-05-09T17:14:51.905Z,32.23
2018-05-09T17:17:19.756Z,33.77
2018-05-09T17:19:47.539Z,43.57
2018-05-09T17:22:28.243Z,29.40
2018-05-09T17:24:56.791Z,34.93
2018-05-09T17:27:24.968Z,44.90
2018-05-09T17:29:52.759Z,29.57
2018-05-09T17:32:20.573Z,39.80
2018-05-09T17:34:48.410Z,38.47
2018-05-09T17:37:16.997Z,43.77
2018-05-09T17:39:45.576Z,41.27
2018-05-09T17:42:14.196Z,34.87
2018-05-09T17:44:42.616Z,40.00
2018-05-09T17:47:11.214Z,29.03
2018-05-09T17:49:39.796Z,26.47
2018-05-09T17:52:08.343Z,48.77
2018-05-09T17:54:36.141Z,39.87
2018-05-09T17:57:04.712Z,37.00
2018-05-09T17:59:32.496Z,37.00
2018-05-09T18:02:01.053Z,46.60
2018-05-09T18:04:28.868Z,37.47
2018-05-09T18:06:56.648Z,46.80
2018-05-09T18:09:24.428Z,37.20
2018-05-09T18:11:52.264Z,31.60
2018-05-09T18:14:20.064Z,41.03
2018-05-09T18:16:47.852Z,37.33
2018-05-09T18:19:16.788Z,40.90
2018-05-09T18:21:44.562Z,40.50
2018-05-09T18:24:12.379Z,42.10
2018-05-09T18:26:41.037Z,38.70
2018-05-09T18:29:08.885Z,40.43
2018-05-09T18:31:36.783Z,26.63
2018-05-09T18:34:05.416Z,33.03
2018-05-09T18:36:33.260Z,29.30
2018-05-09T18:39:01.868Z,23.00
2018-05-09T18:41:29.668Z,27.80
2018-05-09T18:43:57.499Z,28.80
2018-05-09T18:46:25.347Z,33.43
2018-05-09T18:48:53.169Z,28.20
2018-05-09T18:51:20.960Z,34.70
2018-05-09T18:53:49.496Z,26.57
2018-05-09T18:56:17.335Z,32.70
2018-05-09T18:58:45.119Z,39.60
2018-05-09T19:01:14.028Z,32.53
2018-05-09T19:03:41.800Z,41.20
2018-05-09T19:06:09.581Z,27.00
2018-05-09T19:08:38.140Z,33.27
2018-05-09T19:11:06.755Z,34.20
2018-05-09T19:13:34.535Z,34.80
2018-05-09T19:16:03.103Z,40.20
2018-05-09T19:18:32.680Z,37.50
2018-05-09T19:21:01.265Z,38.33
2018-05-09T19:23:29.080Z,42.60
2018-05-09T19:25:56.876Z,37.50
2018-05-09T19:28:24.669Z,55.47
2018-05-09T19:30:53.348Z,42.00
2018-05-09T19:33:21.140Z,42.30
2018-05-09T19:35:49.685Z,31.13
2018-05-09T19:38:17.472Z,36.77
2018-05-09T19:40:45.272Z,40.10
2018-05-09T19:43:13.064Z,39.70
2018-05-09T19:45:40.849Z,43.60
2018-05-09T19:48:08.693Z,44.10
2018-05-09T19:50:36.484Z,41.10
2018-05-09T19:53:04.280Z,48.17
2018-05-09T19:55:32.832Z,45.37
2018-05-09T19:58:00.624Z,40.77
2018-05-09T20:00:29.180Z,45.93
2018-05-09T20:02:57.744Z,53.97
2018-05-09T20:05:25.611Z,52.80
2018-05-09T20:07:54.349Z,43.97
2018-05-09T20:10:22.901Z,54.80
2018-05-09T20:12:50.754Z,42.70
2018-05-09T20:15:18.533Z,49.53
2018-05-09T20:17:46.452Z,46.23
2018-05-09T20:20:14.252Z,43.03
2018-05-09T20:22:42.086Z,40.20
2018-05-09T20:25:09.908Z,44.30
2018-05-09T20:27:37.717Z,42.87
2018-05-09T20:33:02.493Z,49.80
2018-05-09T20:35:31.080Z,47.67
2018-05-09T20:37:59.671Z,45.40
2018-05-09T20:40:28.223Z,47.00
2018-05-09T20:42:56.016Z,52.43
2018-05-09T20:45:24.560Z,41.87
2018-05-09T20:47:52.463Z,43.80
2018-05-09T20:50:21.198Z,50.03
2018-05-09T20:52:49.010Z,54.57
2018-05-09T20:55:27.608Z,51.27
2018-05-09T20:57:57.132Z,41.00
2018-05-09T21:00:25.720Z,54.77
2018-05-09T21:02:54.322Z,42.93
2018-05-09T21:05:22.132Z,39.23
2018-05-09T21:07:58.844Z,38.37
2018-05-09T21:10:27.452Z,47.87
2018-05-09T21:12:55.253Z,38.10
2018-05-09T21:15:23.056Z,47.83
2018-05-09T21:17:51.684Z,44.37
2018-05-09T21:20:19.484Z,47.13
2018-05-09T21:22:47.262Z,50.50
2018-05-09T21:25:15.084Z,41.60
2018-05-09T21:27:42.901Z,52.83
2018-05-09T21:30:10.787Z,47.77
2018-05-09T21:32:38.589Z,44.63
2018-05-09T21:35:06.385Z,45.00
2018-05-09T21:37:34.936Z,50.83
2018-05-09T21:40:02.709Z,54.53
2018-05-09T21:42:30.506Z,45.07
2018-05-09T21:44:59.057Z,54.43
2018-05-09T21:47:26.836Z,53.77
2018-05-09T21:49:54.765Z,49.80
2018-05-09T21:52:22.574Z,47.17
2018-05-09T21:54:50.365Z,57.70
2018-05-09T21:57:18.188Z,49.80
2018-05-09T21:59:45.972Z,50.70
2018-05-09T22:02:14.528Z,52.20
2018-05-09T22:04:42.320Z,51.50
2018-05-09T22:07:10.872Z,52.27
2018-05-09T22:09:38.644Z,47.13
2018-05-09T22:12:06.454Z,44.47
2018-05-09T22:14:34.257Z,50.27
2018-05-09T22:17:02.045Z,48.63
2018-05-09T22:19:29.835Z,47.47
2018-05-09T22:21:58.406Z,43.63
2018-05-09T22:24:26.968Z,50.10
2018-05-09T22:26:54.746Z,50.63
2018-05-09T22:29:22.582Z,52.97
2018-05-09T22:31:50.375Z,57.57
2018-05-09T22:34:18.156Z,46.10
2018-05-09T22:36:46.710Z,52.77
2018-05-09T22:39:14.496Z,51.73
2018-05-09T22:41:43.053Z,51.93
2018-05-09T22:44:10.845Z,45.87
2018-05-09T22:46:38.660Z,49.40
2018-05-09T22:49:06.434Z,58.00
2018-05-09T22:51:34.220Z,49.40
2018-05-09T22:54:02.062Z,43.30
2018-05-09T22:56:29.885Z,46.10
2018-05-09T22:58:57.660Z,57.97
2018-05-09T23:01:25.496Z,49.53
2018-05-09T23:03:53.268Z,70.77
2018-05-09T23:06:21.816Z,47.23
2018-05-09T23:08:49.604Z,47.43
2018-05-09T23:11:18.160Z,56.93
2018-05-09T23:13:45.956Z,54.93
2018-05-09T23:16:14.528Z,50.83
2018-05-09T23:18:42.301Z,48.83
2018-05-09T23:21:10.860Z,54.67
2018-05-09T23:23:39.962Z,53.07
2018-05-09T23:26:07.783Z,56.27
2018-05-09T23:28:35.636Z,69.40
2018-05-09T23:31:03.514Z,59.83
2018-05-09T23:33:31.335Z,49.80
2018-05-09T23:35:59.120Z,55.50
2018-05-09T23:38:27.668Z,52.70
2018-05-09T23:40:55.492Z,62.33
2018-05-09T23:43:23.360Z,57.60
2018-05-09T23:45:51.144Z,45.17
2018-05-09T23:48:18.995Z,53.40
2018-05-09T23:50:47.673Z,46.63
2018-05-09T23:53:15.484Z,48.77
2018-05-09T23:55:43.986Z,55.80
2018-05-09T23:58:11.740Z,55.10
